createdAt,value
2022-12-19T00:00:00.114Z,73.4
2022-12-19T00:05:00.102Z,73.5
2022-12-19T00:10:00.214Z,73.2
2022-12-19T00:15:00.096Z,73.2
2022-12-19T00:20:00.094Z,73.2
2022-12-19T00:25:00.088Z,73
2022-12-19T00:30:00.264Z,73.1
2022-12-19T00:35:00.088Z,73.2
2022-12-19T00:40:00.130Z,73.3
2022-12-19T00:45:00.108Z,73.3
2022-12-19T00:50:00.214Z,73.3
2022-12-19T00:55:00.178Z,73.3
2022-12-19T01:00:00.087Z,73.5
2022-12-19T01:05:00.097Z,73.6
2022-12-19T01:10:00.236Z,73.6
2022-12-19T01:15:02.946Z,73.5
2022-12-19T01:20:00.083Z,73.6
2022-12-19T01:25:00.101Z,73.6
2022-12-19T01:30:00.217Z,73.7
2022-12-19T01:35:00.125Z,73.3
2022-12-19T01:40:00.129Z,74
2022-12-19T01:45:00.118Z,73.6
2022-12-19T01:50:00.209Z,73.3
2022-12-19T01:55:00.077Z,73.1
2022-12-19T02:00:00.082Z,73.2
2022-12-19T02:05:00.075Z,72
2022-12-19T02:10:00.179Z,71.5
2022-12-19T02:15:02.869Z,70.9
2022-12-19T02:20:00.082Z,71.1
2022-12-19T02:25:00.108Z,70.5
2022-12-19T02:30:00.195Z,70.2
2022-12-19T02:35:00.095Z,69.5
2022-12-19T02:40:00.064Z,68
2022-12-19T02:45:00.088Z,68.7
2022-12-19T02:50:00.210Z,68.6
2022-12-19T02:55:00.110Z,68.3
2022-12-19T03:00:00.123Z,66.4
2022-12-19T03:05:00.128Z,65.5
2022-12-19T03:10:00.214Z,64.6
2022-12-19T03:15:00.137Z,63.5
2022-12-19T03:20:00.114Z,62.7
2022-12-19T03:25:00.098Z,62.3
2022-12-19T03:30:00.234Z,61
2022-12-19T03:35:00.107Z,60.8
2022-12-19T03:40:00.172Z,54.3
2022-12-19T03:45:00.125Z,54.7
2022-12-19T03:50:00.222Z,54.9
2022-12-19T03:55:00.120Z,55.2
2022-12-19T04:00:00.134Z,54.9
2022-12-19T04:05:00.126Z,55.5
2022-12-19T04:10:00.130Z,55.6
2022-12-19T04:15:00.108Z,56.2
2022-12-19T04:20:00.146Z,56.2
2022-12-19T04:25:00.127Z,55.8
2022-12-19T04:30:00.216Z,55.9
2022-12-19T04:35:00.124Z,55.9
2022-12-19T04:40:00.122Z,55.8
2022-12-19T04:45:00.133Z,55.8
2022-12-19T04:50:00.233Z,56.3
2022-12-19T04:55:00.107Z,56.5
2022-12-19T05:00:00.138Z,56.9
2022-12-19T05:05:00.111Z,56.9
2022-12-19T05:10:00.222Z,57.1
2022-12-19T05:15:00.117Z,56.8
2022-12-19T05:20:00.133Z,57
2022-12-19T05:25:00.131Z,57.3
2022-12-19T05:30:00.217Z,57.3
2022-12-19T05:35:00.096Z,57.7
2022-12-19T05:40:00.113Z,57.4
2022-12-19T05:45:00.104Z,57.8
2022-12-19T05:50:00.220Z,57.4
2022-12-19T05:55:00.113Z,58.6
2022-12-19T06:00:00.174Z,59.1
2022-12-19T06:05:00.118Z,59.4
2022-12-19T06:10:00.210Z,59.3
2022-12-19T06:15:00.118Z,59.9
2022-12-19T06:20:00.174Z,59.9
2022-12-19T06:25:00.108Z,60
2022-12-19T06:30:00.269Z,60
2022-12-19T06:35:04.510Z,60.1
2022-12-19T06:40:00.105Z,60.4
2022-12-19T06:45:00.136Z,60.4
2022-12-19T06:50:00.238Z,60.4
2022-12-19T06:55:00.086Z,60.2
2022-12-19T07:00:00.137Z,60.2
2022-12-19T07:05:00.149Z,60.2
2022-12-19T07:10:00.210Z,60.6
2022-12-19T07:15:00.131Z,60.6
2022-12-19T07:20:00.106Z,60.7
2022-12-19T07:25:00.183Z,60.6
2022-12-19T07:30:00.252Z,60.1
2022-12-19T07:35:00.103Z,60.5
2022-12-19T07:40:00.115Z,60.3
2022-12-19T07:45:00.097Z,60.5
2022-12-19T07:50:00.230Z,60.6
2022-12-19T07:55:00.121Z,60.6
2022-12-19T08:00:00.145Z,60.4
2022-12-19T08:05:00.102Z,60.4
2022-12-19T08:10:00.252Z,60.7
2022-12-19T08:15:00.113Z,61
2022-12-19T08:20:00.143Z,60.2
2022-12-19T08:25:00.139Z,60.5
2022-12-19T08:30:00.257Z,60.8
2022-12-19T08:35:00.102Z,60.3
2022-12-19T08:40:00.146Z,60.9
2022-12-19T08:45:00.131Z,60.9
2022-12-19T08:50:00.253Z,61.3
2022-12-19T08:55:00.108Z,61.4
2022-12-19T09:00:00.137Z,61.5
2022-12-19T09:05:58.916Z,62.4
2022-12-19T09:10:00.223Z,64
2022-12-19T09:15:00.142Z,65.3
2022-12-19T09:20:00.126Z,66.8
2022-12-19T09:25:00.105Z,69.1
2022-12-19T09:30:00.263Z,70.5
2022-12-19T09:35:00.108Z,72.5
2022-12-19T09:40:00.152Z,73.4
2022-12-19T09:45:00.171Z,73.9
2022-12-19T09:50:00.272Z,74.8
2022-12-19T09:55:00.124Z,76.1
2022-12-19T10:00:00.177Z,78
2022-12-19T10:05:01.078Z,80
2022-12-19T10:11:13.312Z,81.5
2022-12-19T10:15:00.174Z,82.5
2022-12-19T10:20:00.139Z,83.3
2022-12-19T10:25:08.877Z,83.9
2022-12-19T10:30:00.238Z,85.7
2022-12-19T10:35:00.119Z,86.6
2022-12-19T10:40:00.125Z,87.8
2022-12-19T10:45:00.148Z,88.6
2022-12-19T10:50:03.940Z,89.1
2022-12-19T10:55:00.145Z,89.4
2022-12-19T11:00:00.228Z,89.7
2022-12-19T11:05:00.166Z,90
2022-12-19T11:10:41.983Z,90
2022-12-19T11:17:24.296Z,90.1
2022-12-19T11:24:18.230Z,90.2
2022-12-19T11:30:22.295Z,90.3
2022-12-19T11:35:00.102Z,90.5
2022-12-19T11:40:00.119Z,90.7
2022-12-19T11:45:00.126Z,90.8
2022-12-19T11:50:00.264Z,91
2022-12-19T11:55:00.138Z,91.2
2022-12-19T12:00:04.834Z,91.4
2022-12-19T12:05:00.217Z,91.5
2022-12-19T12:12:12.899Z,91.7
2022-12-19T12:19:53.710Z,91.8
2022-12-19T12:28:06.211Z,91.9
2022-12-19T12:31:35.592Z,92.7
2022-12-19T12:31:36.055Z,91.9
2022-12-19T12:36:48.650Z,92.8
2022-12-19T12:40:00.108Z,93
2022-12-19T12:45:00.121Z,93.1
2022-12-19T12:50:00.172Z,93.2
2022-12-19T12:55:00.121Z,93.3
2022-12-19T13:00:00.191Z,93.4
2022-12-19T13:05:00.122Z,93.6
2022-12-19T13:10:00.151Z,93.6
2022-12-19T13:15:00.138Z,93.6
2022-12-19T13:20:00.126Z,93.7
2022-12-19T13:25:00.150Z,93.8
2022-12-19T13:30:00.282Z,93.8
2022-12-19T13:35:05.851Z,93.8
2022-12-19T13:40:10.605Z,93.8
2022-12-19T13:45:00.137Z,93.8
2022-12-19T13:50:00.176Z,93.8
2022-12-19T13:55:00.111Z,94
2022-12-19T14:00:01.290Z,94
2022-12-19T14:05:00.117Z,94
2022-12-19T14:11:26.031Z,94.1
2022-12-19T14:15:12.669Z,94.1
2022-12-19T14:20:06.894Z,94.1
2022-12-19T14:25:07.063Z,94.2
2022-12-19T14:30:31.342Z,94.2
2022-12-19T14:35:29.500Z,94.2
2022-12-19T14:40:00.138Z,94.4
2022-12-19T14:51:29.084Z,94.4
2022-12-19T14:54:18.986Z,94.5
2022-12-19T14:56:03.597Z,94.8
2022-12-19T15:00:00.118Z,94.9
2022-12-19T15:05:00.216Z,95.1
2022-12-19T15:11:01.914Z,95.1
2022-12-19T15:15:00.357Z,95.1
2022-12-19T15:20:00.264Z,95.1
2022-12-19T15:25:00.107Z,95.2
2022-12-19T15:30:00.227Z,95.3
2022-12-19T15:35:00.103Z,95.4
2022-12-19T15:40:00.159Z,95.4
2022-12-19T15:45:00.161Z,95.4
2022-12-19T15:50:00.163Z,95.4
2022-12-19T15:55:00.108Z,95.4
2022-12-19T16:00:00.135Z,95.4
2022-12-19T16:05:04.039Z,95.4
2022-12-19T16:10:00.155Z,95.5
2022-12-19T16:15:00.145Z,95.5
2022-12-19T16:20:00.179Z,95.5
2022-12-19T16:25:00.125Z,95.5
2022-12-19T16:30:00.213Z,95.5
2022-12-19T16:35:00.100Z,95.5
2022-12-19T16:40:00.160Z,95.5
2022-12-19T16:45:00.124Z,95.6
2022-12-19T16:50:00.183Z,95.6
2022-12-19T16:55:00.130Z,95.6
2022-12-19T17:00:00.228Z,95.6
2022-12-19T17:05:00.152Z,95.6
2022-12-19T17:10:00.213Z,95.7
2022-12-19T17:15:00.114Z,95.8
2022-12-19T17:20:00.142Z,95.8
2022-12-19T17:25:00.196Z,95.8
2022-12-19T17:30:00.193Z,95.8
2022-12-19T17:35:00.201Z,95.8
2022-12-19T17:40:00.168Z,95.8
2022-12-19T17:45:00.166Z,95.8
2022-12-19T17:50:00.171Z,95.8
2022-12-19T17:55:00.140Z,95.8
2022-12-19T18:00:00.179Z,95.7
2022-12-19T18:05:00.133Z,95.6
2022-12-19T18:10:00.180Z,95.5
2022-12-19T18:15:00.140Z,95.4
2022-12-19T18:20:00.171Z,95.3
2022-12-19T18:25:00.123Z,95.2
2022-12-19T18:30:00.196Z,94.9
2022-12-19T18:35:00.154Z,94.8
2022-12-19T18:40:00.153Z,94.7
2022-12-19T18:45:00.131Z,94.5
2022-12-19T18:50:00.207Z,94
2022-12-19T18:55:00.166Z,93.2
2022-12-19T19:00:00.171Z,92.7
2022-12-19T19:05:00.239Z,92.2
2022-12-19T19:10:00.127Z,91.9
2022-12-19T19:15:00.122Z,91.7
2022-12-19T19:20:00.122Z,91.3
2022-12-19T19:25:00.124Z,91.2
2022-12-19T19:30:00.142Z,91
2022-12-19T19:35:00.109Z,90.8
2022-12-19T19:40:00.214Z,90.5
2022-12-19T19:45:00.133Z,90.3
2022-12-19T19:50:00.215Z,89.2
2022-12-19T19:55:00.116Z,89.6
2022-12-19T20:00:00.125Z,89.2
2022-12-19T20:05:00.114Z,89.5
2022-12-19T20:10:00.175Z,89.3
2022-12-19T20:15:00.110Z,88.5
2022-12-19T20:20:00.101Z,88.8
2022-12-19T20:25:00.153Z,87.9
2022-12-19T20:30:00.172Z,87.8
2022-12-19T20:35:00.113Z,86.9
2022-12-19T20:40:00.169Z,86.5
2022-12-19T20:45:00.149Z,85.6
2022-12-19T20:50:00.135Z,85
2022-12-19T20:55:00.163Z,85.2
2022-12-19T21:00:00.168Z,85.1
2022-12-19T21:05:00.269Z,85.3
2022-12-19T21:10:00.196Z,85.7
2022-12-19T21:15:00.145Z,84.5
2022-12-19T21:20:00.131Z,86.8
2022-12-19T21:25:00.167Z,86.9
2022-12-19T21:30:00.297Z,86.9
2022-12-19T21:35:00.119Z,85.6
2022-12-19T21:40:00.124Z,85.9
2022-12-19T21:45:00.131Z,84
2022-12-19T21:50:00.139Z,83.1
2022-12-19T21:55:00.131Z,84.5
2022-12-19T22:00:00.187Z,82.5
2022-12-19T22:05:00.140Z,83
2022-12-19T22:10:00.167Z,82.4
2022-12-19T22:15:00.094Z,81.7
2022-12-19T22:20:00.167Z,81.8
2022-12-19T22:25:00.164Z,81.6
2022-12-19T22:30:03.513Z,81.3
2022-12-19T22:35:00.130Z,81.4
2022-12-19T22:40:00.378Z,81.4
2022-12-19T22:45:00.126Z,81.8
2022-12-19T22:50:00.132Z,80.9
2022-12-19T22:55:00.151Z,81.1
2022-12-19T23:00:00.183Z,79.4
2022-12-19T23:05:00.146Z,79.9
2022-12-19T23:10:00.140Z,80.4
2022-12-19T23:15:00.101Z,80.6
2022-12-19T23:20:00.167Z,82
2022-12-19T23:25:00.130Z,82.1
2022-12-19T23:30:00.165Z,81.7
2022-12-19T23:35:00.121Z,80.4
2022-12-19T23:40:00.140Z,80.6
2022-12-19T23:45:00.143Z,79.1
2022-12-19T23:50:00.187Z,78.2
2022-12-19T23:55:00.136Z,78.5
